Strona główna
METAR-TAF:

METAR-TAF

Lotnisko :

Weipa, Australia

Szerokość geograficzna: 12-40-43S, Długość geograficzna: 141-55-31E, wysokość: 19 m

Aktualna obserwacja pogody

Raport powstał 1 godzina i 11 minut temu, godzina 15:00 UTC
Cisza
Temperatura 21°C
Wilgotność 88%
Ciśnienie 1013 hPa
Widzialność 10 km lub więcej

METAR: YBWP 251500Z AUTO 00000KT 9999 // NCD 21/19 Q1013

czas: 02:11 (16:11 UTC)


TAF: brakujący

Obserwacja i prognoza pogody dla ponad 4000 lotnisk (raport METAR i TAF).

Dostępne stacje oznaczono żółtymi i czerwonymi punktami na mapie.

Najedź kursorem aby zobaczyć nazwę stacji.

Kliknij aby zobaczyć obserwacje i prognozy pogody.

Aby zmienić mapę: kliknij na zielony przycisk z czarnym krzyżykiem, aby powiększyć; na zielony przycisk z myślnikiem, aby pomniejszyć; na zielone strzałki, aby przejść do map sąsiednich.


METAR-TAF: